Time;durP1;ratioP1;P1;durP2;ratioP2;P2;SDS_P1;SDS_P2;PMS_P1;PMS_P2;Temp;Humidity;BMP_temperature;BMP_pressure;BME280_temperature;BME280_humidity;BME280_pressure;Samples;Min_cycle;Max_cycle;Signal;HPM_P1;HPM_P2
2022/04/10 00:01:29;;;;;;;6.22;0.88;;;;;;;0.41;55.04;101325.38;5047544;28;20116;-70
2022/04/10 00:03:56;;;;;;;3.45;0.57;;;;;;;0.52;55.04;101323.75;5045214;28;20524;-70
2022/04/10 00:06:23;;;;;;;4.68;0.32;;;;;;;0.51;54.87;101319.47;5047512;28;20087;-70
2022/04/10 00:08:49;;;;;;;4.75;0.30;;;;;;;0.27;55.42;101317.53;5033503;28;20032;-70
2022/04/10 00:11:14;;;;;;;4.68;0.82;;;;;;;0.57;54.45;101319.53;5055219;28;20080;-70
2022/04/10 00:13:40;;;;;;;13.50;0.77;;;;;;;0.57;54.38;101316.97;5045069;28;20041;-70
2022/04/10 00:16:07;;;;;;;13.38;1.25;;;;;;;0.20;55.88;101316.63;5047492;28;20041;-70
2022/04/10 00:18:34;;;;;;;6.90;0.80;;;;;;;0.06;55.98;101313.91;5029965;28;20105;-70
2022/04/10 00:21:00;;;;;;;11.32;1.17;;;;;;;0.33;55.62;101315.03;5046587;28;20056;-70
2022/04/10 00:23:26;;;;;;;5.03;0.98;;;;;;;0.18;56.18;101323.44;5045237;28;20707;-70
2022/04/10 00:25:52;;;;;;;12.55;0.73;;;;;;;0.43;56.02;101337.41;5044450;28;20136;-70
2022/04/10 00:28:18;;;;;;;10.10;0.45;;;;;;;0.27;56.92;101354.38;5046071;28;20120;-72
2022/04/10 00:30:43;;;;;;;5.55;0.30;;;;;;;0.31;56.59;101360.44;5031845;28;20065;-70
2022/04/10 00:33:09;;;;;;;10.70;0.57;;;;;;;0.17;57.27;101362.88;5029535;28;20029;-69
2022/04/10 00:35:34;;;;;;;11.77;1.27;;;;;;;0.41;56.59;101338.22;5013064;28;20414;-69
2022/04/10 00:38:00;;;;;;;13.27;1.85;;;;;;;0.64;55.38;101334.19;5047599;28;20714;-70
2022/04/10 00:40:26;;;;;;;6.28;0.70;;;;;;;0.56;54.55;101333.25;5043408;28;20041;-69
2022/04/10 00:42:52;;;;;;;12.32;1.02;;;;;;;0.42;55.07;101333.13;5044678;28;20033;-70
2022/04/10 00:45:20;;;;;;;8.80;0.63;;;;;;;0.53;54.42;101325.50;5029364;28;20043;-70
2022/04/10 00:47:47;;;;;;;4.68;0.82;;;;;;;0.69;53.71;101335.06;5031201;28;20044;-70
2022/04/10 00:50:14;;;;;;;6.85;0.82;;;;;;;0.58;53.58;101339.25;5046982;28;20624;-72
2022/04/10 00:52:42;;;;;;;2.55;0.38;;;;;;;0.48;53.88;101338.31;5052353;28;20040;-69
2022/04/10 00:55:09;;;;;;;4.72;0.60;;;;;;;0.34;54.07;101339.03;5034103;28;20033;-73
2022/04/10 00:57:35;;;;;;;5.05;1.02;;;;;;;0.37;53.37;101333.94;5048002;28;20132;-71
2022/04/10 01:00:01;;;;;;;4.93;0.63;;;;;;;0.31;53.60;101339.00;5029471;28;20722;-72
2022/04/10 01:02:27;;;;;;;4.85;0.70;;;;;;;0.41;52.50;101330.53;5041796;28;20044;-70
2022/04/10 01:04:52;;;;;;;8.38;0.45;;;;;;;0.57;52.55;101336.66;5043391;28;20889;-69
2022/04/10 01:07:20;;;;;;;5.95;1.35;;;;;;;0.51;52.61;101331.50;5044639;28;20041;-70
2022/04/10 01:09:46;;;;;;;7.18;0.45;;;;;;;0.77;52.18;101332.56;5041993;28;20044;-69
2022/04/10 01:12:13;;;;;;;5.88;0.88;;;;;;;0.72;52.49;101330.81;5042918;28;20823;-72
2022/04/10 01:14:41;;;;;;;3.47;0.80;;;;;;;0.72;52.44;101316.22;5044334;28;20028;-70
2022/04/10 01:17:10;;;;;;;6.32;0.55;;;;;;;0.62;52.65;101325.59;5049499;28;20051;-70
2022/04/10 01:19:39;;;;;;;2.20;1.15;;;;;;;0.42;53.31;101334.84;5046166;28;20387;-70
2022/04/10 01:22:08;;;;;;;3.28;0.65;;;;;;;0.57;52.79;101329.84;5049973;28;20053;-73
2022/04/10 01:24:43;;;;;;;4.00;1.00;;;;;;;0.74;52.53;101336.81;5030021;28;20036;-70
2022/04/10 01:27:12;;;;;;;6.45;0.88;;;;;;;0.74;52.64;101334.25;5035161;28;20104;-70
2022/04/10 01:29:38;;;;;;;7.78;0.90;;;;;;;0.92;52.55;101334.38;5047897;28;20170;-70
2022/04/10 01:32:04;;;;;;;7.43;0.73;;;;;;;0.69;53.25;101342.78;5048974;28;20068;-70
2022/04/10 01:34:30;;;;;;;2.58;0.32;;;;;;;1.13;52.62;101332.81;5047708;28;20040;-70
2022/04/10 01:36:56;;;;;;;15.88;1.95;;;;;;;0.73;53.58;101338.53;5030471;28;20040;-70
2022/04/10 01:39:22;;;;;;;4.72;0.93;;;;;;;0.90;53.17;101336.97;5026291;28;20447;-71
2022/04/10 01:41:50;;;;;;;11.95;1.00;;;;;;;0.80;53.72;101334.31;5036642;28;20052;-72
2022/04/10 01:44:16;;;;;;;6.03;0.90;;;;;;;0.81;53.74;101336.00;5027850;28;20662;-72
2022/04/10 01:46:41;;;;;;;8.48;1.45;;;;;;;0.49;54.50;101349.47;5040496;28;20063;-71
2022/04/10 01:49:09;;;;;;;5.47;0.52;;;;;;;0.89;53.41;101342.94;5048950;28;21011;-70
2022/04/10 01:51:36;;;;;;;10.32;1.02;;;;;;;0.76;53.66;101337.69;5050735;28;20059;-72
2022/04/10 01:54:02;;;;;;;4.55;0.40;;;;;;;0.89;53.32;101345.53;5030346;28;20028;-72
2022/04/10 01:56:27;;;;;;;11.77;1.33;;;;;;;0.86;53.34;101342.09;5043995;28;20049;-72
2022/04/10 01:58:53;;;;;;;6.72;0.40;;;;;;;0.88;53.43;101337.78;5042670;28;20603;-71
2022/04/10 02:01:21;;;;;;;7.43;0.85;;;;;;;1.00;52.90;101340.47;5021746;28;20049;-72
2022/04/10 02:03:47;;;;;;;8.85;1.08;;;;;;;1.04;52.73;101344.78;5013900;28;20045;-71
2022/04/10 02:06:14;;;;;;;8.55;0.90;;;;;;;1.03;52.41;101343.03;5027682;28;20478;-72
2022/04/10 02:08:42;;;;;;;19.75;1.48;;;;;;;0.75;53.44;101348.81;5038717;28;20060;-72
2022/04/10 02:11:19;;;;;;;8.25;1.15;;;;;;;1.10;52.14;101350.00;5023080;28;20133;-72
2022/04/10 02:13:47;;;;;;;10.27;0.90;;;;;;;1.01;52.76;101344.75;5023344;28;20037;-72
2022/04/10 02:16:16;;;;;;;10.05;1.63;;;;;;;1.06;52.37;101352.50;5026098;28;20044;-72
2022/04/10 02:18:41;;;;;;;14.43;1.38;;;;;;;1.04;52.31;101349.94;5058895;28;20033;-72
2022/04/10 02:21:07;;;;;;;11.90;0.82;;;;;;;1.10;51.74;101356.81;5043979;28;20052;-72
2022/04/10 02:23:34;;;;;;;5.60;0.57;;;;;;;1.23;51.13;101350.06;5045746;28;20437;-72
2022/04/10 02:25:59;;;;;;;11.90;2.08;;;;;;;1.24;51.00;101359.53;5042742;28;20060;-71
2022/04/10 02:28:26;;;;;;;11.27;0.75;;;;;;;0.90;52.12;101362.72;5044643;28;20032;-72
2022/04/10 02:30:51;;;;;;;8.95;1.45;;;;;;;1.00;51.55;101353.34;5042574;28;20058;-72
2022/04/10 02:33:17;;;;;;;13.85;1.25;;;;;;;1.03;51.61;101360.22;5053919;28;20079;-72
2022/04/10 02:35:43;;;;;;;9.35;1.00;;;;;;;0.88;52.00;101361.84;5025156;28;20601;-72
2022/04/10 02:38:09;;;;;;;10.45;1.95;;;;;;;1.22;50.91;101358.66;5026877;28;20410;-72
2022/04/10 02:40:35;;;;;;;2.47;0.70;;;;;;;1.17;51.05;101368.03;5027159;28;20041;-72
2022/04/10 02:43:02;;;;;;;9.93;0.85;;;;;;;0.96;51.59;101361.88;5045344;28;20055;-72
2022/04/10 02:45:28;;;;;;;7.88;1.10;;;;;;;0.84;51.80;101375.53;5044183;28;20071;-73
2022/04/10 02:47:54;;;;;;;10.52;1.20;;;;;;;1.29;50.63;101361.25;5045063;28;20385;-72
2022/04/10 02:50:19;;;;;;;12.73;0.90;;;;;;;0.94;51.69;101367.88;5056542;28;20049;-71
2022/04/10 02:52:45;;;;;;;16.40;1.70;;;;;;;1.03;51.51;101371.38;5029904;28;20075;-72
2022/04/10 02:55:11;;;;;;;14.70;1.35;;;;;;;1.54;50.27;101371.72;5029778;28;20029;-72
2022/04/10 02:57:37;;;;;;;6.20;1.33;;;;;;;1.48;50.96;101377.72;5046861;28;20105;-71
2022/04/10 03:00:07;;;;;;;6.05;0.65;;;;;;;1.19;51.15;101363.75;5064551;28;20047;-72
2022/04/10 03:02:32;;;;;;;12.82;1.27;;;;;;;1.47;50.54;101364.84;5061486;28;20052;-71
2022/04/10 03:04:59;;;;;;;17.60;2.00;;;;;;;1.35;50.79;101365.59;5036566;28;20060;-72
2022/04/10 03:07:25;;;;;;;7.65;1.02;;;;;;;1.93;49.52;101365.91;5045149;28;20036;-72
2022/04/10 03:09:50;;;;;;;14.65;1.48;;;;;;;1.69;50.21;101376.97;5046052;28;20036;-72
2022/04/10 03:12:16;;;;;;;13.18;0.98;;;;;;;1.57;50.53;101373.47;5055995;28;20079;-71
2022/04/10 03:14:41;;;;;;;15.52;1.58;;;;;;;1.60;50.11;101384.66;5045126;28;20041;-73
2022/04/10 03:17:09;;;;;;;8.68;1.35;;;;;;;1.14;51.31;101384.31;5053902;28;20682;-72
2022/04/10 03:19:35;;;;;;;6.18;0.80;;;;;;;1.26;51.07;101387.00;5035522;28;20037;-72
2022/04/10 03:22:01;;;;;;;6.43;1.02;;;;;;;1.38;50.75;101387.94;5043635;28;20056;-72
2022/04/10 03:24:27;;;;;;;12.02;1.05;;;;;;;1.38;50.54;101391.38;5032933;28;20102;-72
2022/04/10 03:26:53;;;;;;;13.32;0.60;;;;;;;1.48;50.57;101390.63;5046334;28;20045;-71
2022/04/10 03:29:18;;;;;;;19.35;1.65;;;;;;;1.27;50.83;101393.84;5049012;28;20032;-72
2022/04/10 03:31:45;;;;;;;7.05;0.93;;;;;;;1.62;50.30;101392.41;5046996;28;20068;-72
2022/04/10 03:34:11;;;;;;;11.45;0.80;;;;;;;1.44;50.84;101396.59;5047562;28;20028;-74
2022/04/10 03:36:37;;;;;;;8.77;1.48;;;;;;;1.24;51.31;101390.41;5045056;28;20772;-72
2022/04/10 03:39:02;;;;;;;13.93;1.15;;;;;;;1.32;50.84;101394.75;5047799;28;20037;-72
2022/04/10 03:41:28;;;;;;;11.20;1.02;;;;;;;1.13;51.04;101392.03;5045053;28;20048;-72
2022/04/10 03:43:53;;;;;;;9.93;0.65;;;;;;;1.23;51.15;101393.81;5033004;28;20033;-73
2022/04/10 03:46:19;;;;;;;7.75;0.60;;;;;;;0.83;51.90;101396.09;5038928;28;20070;-72
2022/04/10 03:48:44;;;;;;;12.40;0.77;;;;;;;1.13;50.95;101400.63;5051505;28;20052;-72
2022/04/10 03:51:10;;;;;;;13.38;1.80;;;;;;;1.18;50.71;101409.25;5060980;28;20040;-71
2022/04/10 03:53:37;;;;;;;12.65;0.68;;;;;;;1.11;51.02;101408.34;5059179;28;20250;-72
2022/04/10 03:56:03;;;;;;;5.78;1.30;;;;;;;0.91;51.61;101409.88;5061750;28;20128;-72
2022/04/10 03:58:32;;;;;;;11.45;0.70;;;;;;;0.94;52.14;101416.78;5031863;28;20072;-72
2022/04/10 04:00:59;;;;;;;7.25;0.88;;;;;;;1.01;51.35;101416.81;5049176;28;20086;-72
2022/04/10 04:03:26;;;;;;;13.27;0.70;;;;;;;0.92;52.15;101427.03;5046561;28;20029;-72
2022/04/10 04:05:52;;;;;;;8.75;1.00;;;;;;;0.99;51.88;101425.38;5044522;28;20178;-72
2022/04/10 04:08:18;;;;;;;8.77;1.13;;;;;;;0.98;52.00;101427.09;5037254;28;20028;-72
2022/04/10 04:10:44;;;;;;;11.07;1.08;;;;;;;1.07;51.98;101436.63;5043702;28;20127;-72
2022/04/10 04:13:10;;;;;;;10.30;1.08;;;;;;;0.60;53.04;101440.47;5035341;28;20092;-71
2022/04/10 04:15:36;;;;;;;10.45;0.57;;;;;;;0.96;52.13;101439.09;5046246;28;20039;-72
2022/04/10 04:18:02;;;;;;;12.05;0.65;;;;;;;0.90;52.28;101446.75;5046409;28;20028;-72
2022/04/10 04:20:29;;;;;;;7.97;0.63;;;;;;;1.04;52.03;101445.19;5030383;28;20032;-72
2022/04/10 04:22:56;;;;;;;9.50;0.73;;;;;;;0.85;52.60;101456.16;5047731;28;20134;-72
2022/04/10 04:25:22;;;;;;;13.15;1.52;;;;;;;0.59;53.41;101453.31;5047177;28;20032;-72
2022/04/10 04:27:51;;;;;;;10.93;0.90;;;;;;;0.99;52.26;101462.31;5047454;28;20063;-72
2022/04/10 04:30:17;;;;;;;10.07;1.17;;;;;;;0.84;52.52;101464.75;5046281;28;20035;-72
2022/04/10 04:32:45;;;;;;;9.48;1.20;;;;;;;0.73;52.86;101467.19;5044536;28;20146;-72
2022/04/10 04:35:12;;;;;;;9.88;1.23;;;;;;;0.77;52.72;101473.22;5031155;28;20071;-72
2022/04/10 04:37:40;;;;;;;7.05;1.00;;;;;;;0.94;52.26;101463.09;5034151;28;20041;-72
2022/04/10 04:40:09;;;;;;;9.82;0.50;;;;;;;0.96;51.88;101472.56;5030354;28;20696;-72
2022/04/10 04:42:36;;;;;;;7.32;0.80;;;;;;;1.02;51.75;101477.78;5052252;28;20437;-71
2022/04/10 04:45:04;;;;;;;5.60;1.20;;;;;;;1.15;51.22;101475.28;5046064;28;20028;-72
2022/04/10 04:47:30;;;;;;;6.32;0.63;;;;;;;0.59;52.41;101474.78;5047691;28;20049;-72
2022/04/10 04:49:55;;;;;;;12.57;1.20;;;;;;;0.79;51.89;101484.38;5037917;28;20477;-72
2022/04/10 04:52:23;;;;;;;9.45;0.73;;;;;;;0.99;51.19;101482.91;5011719;28;20041;-72
2022/04/10 04:54:51;;;;;;;5.30;1.05;;;;;;;1.08;50.97;101483.00;5016321;28;20434;-72
2022/04/10 04:57:17;;;;;;;10.07;0.68;;;;;;;1.59;49.66;101483.41;5041204;28;20623;-72
2022/04/10 04:59:43;;;;;;;12.52;1.65;;;;;;;1.30;49.38;101475.44;5030578;28;20063;-72
2022/04/10 05:02:09;;;;;;;9.13;1.17;;;;;;;1.57;48.73;101479.97;5048833;28;20052;-72
2022/04/10 05:04:35;;;;;;;13.73;1.48;;;;;;;1.46;49.13;101492.78;5031284;28;20041;-72
2022/04/10 05:07:01;;;;;;;11.80;1.50;;;;;;;1.62;48.63;101504.06;5026437;28;20048;-71
2022/04/10 05:09:26;;;;;;;11.35;0.77;;;;;;;1.30;49.28;101499.50;5048074;28;20453;-72
2022/04/10 05:11:53;;;;;;;8.75;0.93;;;;;;;1.45;48.62;101510.78;5023906;28;20036;-72
2022/04/10 05:14:20;;;;;;;10.13;0.43;;;;;;;1.51;49.04;101511.72;5032635;28;20124;-72
2022/04/10 05:16:46;;;;;;;15.90;1.25;;;;;;;1.07;49.99;101514.72;5035703;28;20556;-72
2022/04/10 05:19:12;;;;;;;5.80;0.55;;;;;;;1.64;49.29;101519.50;5046372;28;20039;-73
2022/04/10 05:21:38;;;;;;;14.27;1.58;;;;;;;1.84;48.58;101515.38;5043476;28;20040;-72
2022/04/10 05:24:04;;;;;;;6.68;0.70;;;;;;;1.49;50.09;101517.69;5034553;28;20558;-71
2022/04/10 05:26:30;;;;;;;10.40;0.73;;;;;;;1.63;49.81;101525.53;5031436;28;20045;-72
2022/04/10 05:28:59;;;;;;;3.63;0.75;;;;;;;1.68;49.73;101523.84;5046519;28;20056;-72
2022/04/10 05:31:25;;;;;;;7.80;0.93;;;;;;;1.28;51.19;101531.22;5052443;28;20036;-72
2022/04/10 05:33:51;;;;;;;10.02;0.90;;;;;;;1.19;51.70;101531.13;5046193;28;20428;-72
2022/04/10 05:36:19;;;;;;;7.15;0.30;;;;;;;1.42;51.39;101524.53;5049652;28;20127;-72
2022/04/10 05:38:47;;;;;;;13.63;0.75;;;;;;;1.46;50.97;101528.84;5047946;28;20472;-72
2022/04/10 05:41:14;;;;;;;4.80;1.25;;;;;;;1.22;51.73;101539.75;5032940;28;20091;-72
2022/04/10 05:43:48;;;;;;;8.60;1.02;;;;;;;1.91;51.18;101536.91;5043400;28;20529;-72
2022/04/10 05:46:14;;;;;;;9.07;0.50;;;;;;;2.09;50.42;101537.03;5030288;28;20422;-72
2022/04/10 05:48:41;;;;;;;5.43;1.05;;;;;;;3.67;48.86;101539.22;5047667;28;20783;-72
2022/04/10 05:51:08;;;;;;;3.20;0.65;;;;;;;4.10;46.06;101538.28;5048226;28;20048;-72
2022/04/10 05:53:34;;;;;;;4.45;0.93;;;;;;;3.71;45.88;101542.63;5036804;28;20044;-72
2022/04/10 05:56:01;;;;;;;10.10;1.00;;;;;;;3.04;47.74;101546.84;5044170;28;20132;-72
2022/04/10 05:58:31;;;;;;;6.53;0.50;;;;;;;2.68;47.99;101557.94;5048107;28;20042;-72
2022/04/10 06:00:57;;;;;;;12.40;1.52;;;;;;;2.39;49.00;101550.06;5046743;28;20410;-72
2022/04/10 06:03:23;;;;;;;4.32;0.50;;;;;;;1.80;50.48;101567.78;5046233;28;20028;-72
2022/04/10 06:05:51;;;;;;;16.48;1.42;;;;;;;2.03;50.26;101567.06;5041736;28;20047;-72
2022/04/10 06:08:22;;;;;;;5.13;1.13;;;;;;;2.40;50.12;101567.28;5054686;28;20460;-73
2022/04/10 06:10:48;;;;;;;5.72;0.40;;;;;;;4.42;45.47;101557.16;5039665;28;20120;-72
2022/04/10 06:13:14;;;;;;;12.93;1.77;;;;;;;5.88;41.03;101568.34;5031927;28;20060;-72
2022/04/10 06:15:48;;;;;;;6.05;0.45;;;;;;;6.90;40.79;101562.91;5032956;28;20104;-72
2022/04/10 06:18:14;;;;;;;3.28;0.60;;;;;;;6.46;39.79;101573.00;5046090;28;20036;-72
2022/04/10 06:20:40;;;;;;;3.88;0.30;;;;;;;5.95;39.96;101574.34;5027047;28;20603;-72
2022/04/10 06:23:08;;;;;;;9.05;0.60;;;;;;;5.88;42.12;101576.13;5034185;28;20557;-72
2022/04/10 06:25:34;;;;;;;11.27;0.68;;;;;;;5.99;40.65;101576.03;5046939;28;20033;-72
2022/04/10 06:28:00;;;;;;;9.43;1.17;;;;;;;4.91;42.26;101581.16;5035722;28;20668;-72
2022/04/10 06:30:34;;;;;;;8.73;0.50;;;;;;;4.02;43.71;101593.47;5047816;28;20693;-73
2022/04/10 06:33:00;;;;;;;7.38;0.45;;;;;;;3.28;46.02;101602.88;5049046;28;20094;-73
2022/04/10 06:35:26;;;;;;;4.15;0.60;;;;;;;4.01;46.35;101606.41;5034388;28;20017;-72
2022/04/10 06:37:54;;;;;;;9.23;0.70;;;;;;;4.85;44.19;101605.31;5046684;28;20048;-73
2022/04/10 06:40:21;;;;;;;8.77;0.40;;;;;;;5.66;41.89;101606.63;5048500;28;20044;-72
2022/04/10 06:42:49;;;;;;;4.47;0.43;;;;;;;5.68;41.54;101607.44;5045913;28;20131;-72
2022/04/10 06:45:24;;;;;;;17.50;0.85;;;;;;;6.29;39.55;101606.91;5050115;28;20037;-72
2022/04/10 06:47:55;;;;;;;2.88;0.40;;;;;;;5.79;39.99;101620.31;5048773;28;20049;-72
2022/04/10 06:50:25;;;;;;;7.85;0.80;;;;;;;5.28;41.99;101619.81;5049362;28;20040;-72
2022/04/10 06:52:53;;;;;;;10.02;0.60;;;;;;;4.80;42.94;101612.25;5047089;28;20075;-73
2022/04/10 06:55:19;;;;;;;4.20;0.38;;;;;;;4.63;44.03;101613.19;5034664;28;20035;-73
2022/04/10 06:57:44;;;;;;;7.85;0.68;;;;;;;4.45;43.76;101607.19;5039136;28;20040;-73
2022/04/10 07:00:11;;;;;;;7.57;1.00;;;;;;;5.04;43.75;101619.09;5040794;28;20055;-72
2022/04/10 07:02:38;;;;;;;7.40;0.80;;;;;;;6.34;39.54;101619.84;5038807;28;20090;-72
2022/04/10 07:05:05;;;;;;;7.10;0.50;;;;;;;5.01;42.16;101624.28;5050844;28;20115;-72
2022/04/10 07:07:34;;;;;;;6.63;1.15;;;;;;;3.63;44.84;101627.06;5037859;28;20048;-73
2022/04/10 07:10:00;;;;;;;10.13;0.47;;;;;;;3.39;45.88;101631.38;5035313;28;20036;-72
2022/04/10 07:12:26;;;;;;;8.63;1.15;;;;;;;3.47;45.39;101634.84;5048214;28;20287;-73
2022/04/10 07:14:53;;;;;;;7.50;1.00;;;;;;;2.86;46.88;101644.94;5044383;28;20032;-73
2022/04/10 07:17:19;;;;;;;9.05;0.40;;;;;;;3.01;45.66;101639.84;5047730;28;20047;-73
2022/04/10 07:19:50;;;;;;;5.60;1.05;;;;;;;2.94;45.41;101648.41;5034414;28;20064;-72
2022/04/10 07:25:03;;;;;;;4.13;0.40;;;;;;;3.51;44.18;101646.88;5047709;28;20029;-72
2022/04/10 07:27:29;;;;;;;4.35;0.73;;;;;;;3.24;44.43;101662.28;5047837;28;20499;-73
2022/04/10 07:30:15;;;;;;;3.42;0.20;;;;;;;4.32;42.68;101663.28;5046808;28;20044;-73
2022/04/10 07:32:49;;;;;;;4.85;0.20;;;;;;;7.41;37.10;101658.41;5046959;28;20049;-73
2022/04/10 07:35:16;;;;;;;2.75;0.30;;;;;;;10.19;32.51;101666.88;5048133;28;20032;-73
2022/04/10 07:37:58;;;;;;;3.13;0.30;;;;;;;11.73;29.61;101662.44;5034438;28;20477;-74
2022/04/10 07:40:23;;;;;;;7.22;0.20;;;;;;;12.58;27.70;101657.84;5046380;28;20036;-73
2022/04/10 07:42:50;;;;;;;4.93;0.20;;;;;;;11.56;28.80;101659.50;5030337;28;20092;-73
2022/04/10 07:48:23;;;;;;;3.72;0.30;;;;;;;15.01;24.62;101653.19;5048547;28;20045;-73
2022/04/10 07:50:49;;;;;;;8.98;1.42;;;;;;;13.30;26.47;101662.16;5046010;28;20413;-74
2022/04/10 07:53:17;;;;;;;2.25;0.30;;;;;;;10.50;29.68;101671.25;5046683;28;20066;-74
2022/04/10 07:55:48;;;;;;;5.93;1.38;;;;;;;10.50;29.29;101666.03;5027773;28;20036;-74
2022/04/10 07:58:13;;;;;;;6.95;0.93;;;;;;;10.28;29.78;101668.38;5049508;28;20046;-74
2022/04/10 08:00:39;;;;;;;6.32;0.30;;;;;;;10.23;29.86;101667.63;5021488;28;20816;-74
2022/04/10 08:03:07;;;;;;;11.00;0.90;;;;;;;9.65;29.74;101663.81;5049216;28;20093;-73
2022/04/10 08:05:48;;;;;;;6.22;0.95;;;;;;;7.03;35.25;101683.16;5043453;28;20045;-74
2022/04/10 08:08:18;;;;;;;1.70;0.30;;;;;;;4.65;34.87;101683.06;5036952;28;20083;-73
2022/04/10 08:10:44;;;;;;;2.72;0.20;;;;;;;3.51;37.97;101701.16;5008676;28;20033;-74
2022/04/10 08:13:09;;;;;;;2.47;0.20;;;;;;;3.19;42.46;101694.13;5035887;28;20097;-73
2022/04/10 08:15:35;;;;;;;9.63;0.50;;;;;;;3.14;43.33;101703.59;5028734;28;20110;-73
2022/04/10 08:18:00;;;;;;;4.43;0.40;;;;;;;4.75;41.51;101689.13;5048083;28;20036;-73
2022/04/10 08:20:26;;;;;;;12.00;0.77;;;;;;;7.81;35.25;101699.47;5048381;28;20033;-73
2022/04/10 08:22:53;;;;;;;4.30;0.40;;;;;;;9.45;32.21;101690.38;5027561;28;20491;-74
2022/04/10 08:25:23;;;;;;;5.15;0.30;;;;;;;9.11;32.09;101697.16;5033514;28;20059;-74
2022/04/10 08:27:49;;;;;;;4.45;0.52;;;;;;;10.95;29.33;101699.69;5015186;28;20052;-74
2022/04/10 08:30:15;;;;;;;3.97;0.47;;;;;;;11.38;28.55;101708.91;5033107;28;20041;-75
2022/04/10 08:32:43;;;;;;;2.17;0.28;;;;;;;9.66;31.51;101713.38;5039851;28;20055;-74
2022/04/10 08:35:09;;;;;;;5.07;0.50;;;;;;;7.37;34.05;101708.75;5047259;28;20044;-74
2022/04/10 08:37:35;;;;;;;4.75;0.40;;;;;;;6.15;36.74;101704.81;5035182;28;20036;-73
2022/04/10 08:40:02;;;;;;;4.80;0.57;;;;;;;6.71;36.57;101710.38;5045685;28;20032;-74
2022/04/10 08:42:28;;;;;;;4.18;0.40;;;;;;;6.63;36.38;101709.59;5032723;28;20096;-73
2022/04/10 08:44:55;;;;;;;3.15;0.45;;;;;;;6.48;37.14;101732.25;5029184;28;20056;-74
2022/04/10 08:47:21;;;;;;;5.05;0.20;;;;;;;3.68;43.55;101773.59;5014472;28;20656;-72
2022/04/10 08:49:52;;;;;;;3.60;0.20;;;;;;;2.38;48.06;101770.22;5029199;28;20081;-72
2022/04/10 08:52:19;;;;;;;3.78;0.17;;;;;;;1.27;51.47;101774.16;5025854;28;20052;-72
2022/04/10 08:54:45;;;;;;;3.45;0.40;;;;;;;1.69;51.04;101780.72;5030200;28;20044;-72
2022/04/10 08:57:12;;;;;;;2.75;0.20;;;;;;;1.60;52.16;101789.22;5045285;28;20464;-72
2022/04/10 08:59:38;;;;;;;1.63;0.20;;;;;;;2.49;51.49;101797.88;5054763;28;20113;-72
2022/04/10 09:02:04;;;;;;;2.22;0.17;;;;;;;2.12;51.70;101781.19;5052934;28;20048;-71
2022/04/10 09:04:31;;;;;;;3.83;0.10;;;;;;;2.13;53.08;101785.47;5048515;28;20036;-72
2022/04/10 09:07:10;;;;;;;1.40;0.30;;;;;;;2.47;51.64;101778.06;5000918;28;20505;-72
2022/04/10 09:09:40;;;;;;;5.43;0.30;;;;;;;2.98;50.92;101774.13;5046024;28;20039;-72
2022/04/10 09:12:06;;;;;;;3.58;0.25;;;;;;;3.41;49.52;101774.38;5044584;28;20497;-72
2022/04/10 09:14:36;;;;;;;6.78;0.50;;;;;;;4.65;46.95;101768.53;5046376;28;20299;-72
2022/04/10 09:17:10;;;;;;;1.67;0.60;;;;;;;5.43;45.44;101762.31;5028090;28;20549;-71
2022/04/10 09:19:41;;;;;;;3.90;0.40;;;;;;;6.32;41.32;101759.22;5047049;28;20040;-72
2022/04/10 09:22:21;;;;;;;1.63;0.00;;;;;;;6.85;40.77;101755.25;5025938;28;20234;-73
2022/04/10 09:25:11;;;;;;;5.68;0.88;;;;;;;6.47;40.60;101761.69;5045627;28;20175;-72
2022/04/10 09:27:47;;;;;;;2.15;0.50;;;;;;;6.53;41.38;101765.09;4992752;28;20049;-73
2022/04/10 09:30:14;;;;;;;4.03;0.30;;;;;;;7.20;37.63;101769.63;5038748;28;20388;-73
2022/04/10 09:32:44;;;;;;;0.95;0.30;;;;;;;7.84;39.74;101773.16;5046465;28;20048;-73
2022/04/10 09:35:12;;;;;;;1.40;0.30;;;;;;;7.15;38.08;101768.78;5049674;28;20063;-73
2022/04/10 09:37:57;;;;;;;3.47;0.45;;;;;;;7.69;38.61;101775.97;5053006;28;20037;-74
2022/04/10 09:40:33;;;;;;;4.63;0.38;;;;;;;7.80;38.71;101775.81;5038096;28;20483;-73
2022/04/10 09:43:07;;;;;;;2.42;0.30;;;;;;;7.16;37.42;101778.34;5069273;28;20036;-73
2022/04/10 09:45:40;;;;;;;2.92;0.32;;;;;;;6.75;36.90;101781.34;5051145;28;20740;-73
2022/04/10 09:48:19;;;;;;;7.25;0.50;;;;;;;6.54;39.99;101785.88;4995566;28;20520;-72
2022/04/10 09:50:45;;;;;;;7.80;0.40;;;;;;;6.03;39.26;101785.34;5050537;28;20044;-73
2022/04/10 09:53:11;;;;;;;1.13;0.28;;;;;;;5.08;41.88;101791.84;5047112;28;20560;-76
2022/04/10 09:55:42;;;;;;;10.23;1.17;;;;;;;5.05;42.95;101791.81;5023456;28;20090;-73
2022/04/10 09:58:10;;;;;;;7.32;0.50;;;;;;;5.42;41.42;101797.75;5039889;28;20040;-73
2022/04/10 10:00:43;;;;;;;2.42;0.25;;;;;;;6.07;40.04;101787.91;5050185;28;20041;-73
2022/04/10 10:03:09;;;;;;;4.45;0.32;;;;;;;7.14;38.65;101784.44;5065801;28;20055;-73
2022/04/10 10:05:36;;;;;;;8.77;0.55;;;;;;;7.24;38.23;101786.88;5050728;28;20785;-73
2022/04/10 10:08:02;;;;;;;5.28;1.17;;;;;;;7.56;39.21;101780.50;5054249;28;20032;-73
2022/04/10 10:10:35;;;;;;;7.28;0.80;;;;;;;7.56;39.32;101787.41;5044928;28;20098;-73
2022/04/10 10:13:03;;;;;;;5.47;0.63;;;;;;;6.68;38.77;101794.38;5068380;28;20577;-73
2022/04/10 10:15:29;;;;;;;4.68;0.30;;;;;;;7.52;37.88;101796.97;5030221;28;20052;-73
2022/04/10 10:17:55;;;;;;;5.90;0.40;;;;;;;7.25;38.87;101804.22;5052482;28;20037;-74
2022/04/10 10:20:21;;;;;;;8.75;1.10;;;;;;;7.22;40.37;101804.28;5054542;28;20048;-73
2022/04/10 10:22:47;;;;;;;3.92;0.40;;;;;;;7.33;40.11;101810.22;5052002;28;20635;-74
2022/04/10 10:25:24;;;;;;;5.57;1.10;;;;;;;7.47;39.05;101788.38;5052122;28;20031;-73
2022/04/10 10:28:25;;;;;;;7.03;0.60;;;;;;;7.98;38.01;101813.75;5052444;28;20431;-73
2022/04/10 10:31:16;;;;;;;4.38;0.25;;;;;;;8.52;36.46;101799.03;5052493;28;20206;-73
2022/04/10 10:33:58;;;;;;;3.10;0.30;;;;;;;8.07;38.78;101806.69;5059562;28;20028;-73
2022/04/10 10:36:28;;;;;;;4.05;0.30;;;;;;;8.66;37.35;101814.44;5060536;28;20551;-74
2022/04/10 10:38:56;;;;;;;3.03;0.35;;;;;;;7.10;39.72;101813.03;5052190;28;20116;-74
2022/04/10 10:41:21;;;;;;;5.80;0.75;;;;;;;7.20;39.45;101819.03;5054945;28;20033;-73
2022/04/10 10:43:48;;;;;;;5.70;0.52;;;;;;;6.33;40.25;101823.28;5050608;28;20888;-73
2022/04/10 10:46:21;;;;;;;3.80;0.50;;;;;;;6.21;39.81;101820.72;5053827;28;20071;-73
2022/04/10 10:48:47;;;;;;;5.00;0.70;;;;;;;7.01;39.00;101826.16;5058307;28;20053;-74
2022/04/10 10:51:13;;;;;;;3.72;0.30;;;;;;;7.12;37.57;101834.69;5058816;28;20025;-74
2022/04/10 10:53:47;;;;;;;10.73;1.23;;;;;;;7.37;38.54;101838.78;5050661;28;20368;-73
2022/04/10 10:56:30;;;;;;;5.00;0.32;;;;;;;7.12;38.67;101832.09;5053282;28;20378;-73
2022/04/10 10:59:32;;;;;;;5.35;0.30;;;;;;;7.70;36.20;101828.00;5051360;28;20037;-74
2022/04/10 11:02:07;;;;;;;3.92;0.63;;;;;;;7.23;36.69;101819.00;5024985;28;20604;-74
2022/04/10 11:04:43;;;;;;;3.60;0.75;;;;;;;7.16;36.86;101830.34;5052757;28;20068;-72
2022/04/10 11:07:22;;;;;;;4.07;0.40;;;;;;;7.37;37.51;101838.78;5027547;28;20541;-74
2022/04/10 11:10:06;;;;;;;4.00;0.45;;;;;;;7.30;36.75;101837.97;5050825;28;20102;-73
2022/04/10 11:12:49;;;;;;;7.50;0.40;;;;;;;6.43;38.33;101835.28;5051922;28;20481;-73
2022/04/10 11:15:18;;;;;;;10.32;0.70;;;;;;;7.35;37.50;101845.72;5062907;28;20444;-72
2022/04/10 11:17:45;;;;;;;8.18;0.73;;;;;;;7.73;35.92;101838.38;5049309;28;20044;-73
2022/04/10 11:20:12;;;;;;;9.43;1.08;;;;;;;7.66;35.82;101841.06;5051211;28;20144;-73
2022/04/10 11:22:53;;;;;;;7.45;0.43;;;;;;;7.62;35.23;101845.44;5052051;28;20040;-73
2022/04/10 11:25:28;;;;;;;9.93;0.47;;;;;;;8.51;33.76;101841.59;5053101;28;20033;-74
2022/04/10 11:27:56;;;;;;;7.43;0.60;;;;;;;8.93;33.18;101841.78;5065645;28;20603;-73
2022/04/10 11:30:28;;;;;;;1.75;0.38;;;;;;;7.74;33.34;101845.31;5042370;28;20024;-74
2022/04/10 11:33:05;;;;;;;7.35;0.40;;;;;;;8.36;33.65;101845.31;5048678;28;20043;-73
2022/04/10 11:35:34;;;;;;;9.35;0.77;;;;;;;8.06;33.88;101841.41;5050665;28;20040;-74
2022/04/10 11:38:08;;;;;;;4.75;0.57;;;;;;;8.17;35.30;101845.59;5050784;28;20032;-73
2022/04/10 11:40:41;;;;;;;7.63;0.80;;;;;;;7.45;36.79;101843.03;5040037;28;20063;-74
2022/04/10 11:43:08;;;;;;;6.15;0.55;;;;;;;7.28;37.64;101848.38;5059224;28;20078;-74